sensor_id;sensor_type;location;lat;lon;timestamp;P1;durP1;ratioP1;P2;durP2;ratioP2
24273;SDS011;12392;42.678;23.380;2023-03-01T00:01:20;2.53;;;1.58;;
24273;SDS011;12392;42.678;23.380;2023-03-01T00:03:48;2.47;;;1.60;;
24273;SDS011;12392;42.678;23.380;2023-03-01T00:06:14;1.33;;;0.93;;
24273;SDS011;12392;42.678;23.380;2023-03-01T00:08:40;2.17;;;1.00;;
24273;SDS011;12392;42.678;23.380;2023-03-01T00:11:08;0.77;;;0.52;;
24273;SDS011;12392;42.678;23.380;2023-03-01T00:13:38;1.65;;;1.13;;
24273;SDS011;12392;42.678;23.380;2023-03-01T00:16:08;2.92;;;0.70;;
24273;SDS011;12392;42.678;23.380;2023-03-01T00:18:36;1.77;;;0.95;;
24273;SDS011;12392;42.678;23.380;2023-03-01T00:21:01;2.47;;;1.73;;
24273;SDS011;12392;42.678;23.380;2023-03-01T00:23:27;2.22;;;1.45;;
24273;SDS011;12392;42.678;23.380;2023-03-01T00:25:53;4.38;;;1.77;;
24273;SDS011;12392;42.678;23.380;2023-03-01T00:28:19;1.52;;;1.15;;
24273;SDS011;12392;42.678;23.380;2023-03-01T00:30:46;4.30;;;2.30;;
24273;SDS011;12392;42.678;23.380;2023-03-01T00:33:11;3.30;;;1.58;;
24273;SDS011;12392;42.678;23.380;2023-03-01T00:35:37;3.28;;;2.13;;
24273;SDS011;12392;42.678;23.380;2023-03-01T00:38:03;3.80;;;1.55;;
24273;SDS011;12392;42.678;23.380;2023-03-01T00:40:33;4.85;;;1.95;;
24273;SDS011;12392;42.678;23.380;2023-03-01T00:42:59;5.57;;;1.77;;
24273;SDS011;12392;42.678;23.380;2023-03-01T00:45:25;1.55;;;1.20;;
24273;SDS011;12392;42.678;23.380;2023-03-01T00:47:52;2.30;;;1.33;;
24273;SDS011;12392;42.678;23.380;2023-03-01T00:50:18;2.10;;;1.63;;
24273;SDS011;12392;42.678;23.380;2023-03-01T00:52:44;3.40;;;1.80;;
24273;SDS011;12392;42.678;23.380;2023-03-01T00:55:10;4.05;;;2.70;;
24273;SDS011;12392;42.678;23.380;2023-03-01T00:57:36;2.72;;;1.08;;
24273;SDS011;12392;42.678;23.380;2023-03-01T01:00:03;2.58;;;1.33;;
24273;SDS011;12392;42.678;23.380;2023-03-01T01:02:32;2.80;;;1.40;;
24273;SDS011;12392;42.678;23.380;2023-03-01T01:04:58;5.07;;;2.30;;
24273;SDS011;12392;42.678;23.380;2023-03-01T01:07:23;3.72;;;2.10;;
24273;SDS011;12392;42.678;23.380;2023-03-01T01:09:49;4.05;;;1.88;;
24273;SDS011;12392;42.678;23.380;2023-03-01T01:12:15;4.07;;;2.55;;
24273;SDS011;12392;42.678;23.380;2023-03-01T01:14:41;4.57;;;1.88;;
24273;SDS011;12392;42.678;23.380;2023-03-01T01:17:06;2.97;;;2.10;;
24273;SDS011;12392;42.678;23.380;2023-03-01T01:19:32;2.55;;;1.52;;
24273;SDS011;12392;42.678;23.380;2023-03-01T01:21:58;4.32;;;2.20;;
24273;SDS011;12392;42.678;23.380;2023-03-01T01:24:23;5.60;;;2.47;;
24273;SDS011;12392;42.678;23.380;2023-03-01T01:26:49;4.05;;;2.63;;
24273;SDS011;12392;42.678;23.380;2023-03-01T01:29:15;3.15;;;1.60;;
24273;SDS011;12392;42.678;23.380;2023-03-01T01:31:41;4.18;;;2.22;;
24273;SDS011;12392;42.678;23.380;2023-03-01T01:34:08;2.15;;;1.60;;
24273;SDS011;12392;42.678;23.380;2023-03-01T01:36:39;3.78;;;2.03;;
24273;SDS011;12392;42.678;23.380;2023-03-01T01:39:05;2.47;;;1.73;;
24273;SDS011;12392;42.678;23.380;2023-03-01T01:41:30;1.17;;;1.08;;
24273;SDS011;12392;42.678;23.380;2023-03-01T01:46:39;0.40;;;0.40;;
24273;SDS011;12392;42.678;23.380;2023-03-01T01:49:36;1.33;;;0.70;;
24273;SDS011;12392;42.678;23.380;2023-03-01T01:52:07;1.02;;;0.50;;
24273;SDS011;12392;42.678;23.380;2023-03-01T01:57:13;0.82;;;0.52;;
24273;SDS011;12392;42.678;23.380;2023-03-01T01:59:42;0.88;;;0.57;;
24273;SDS011;12392;42.678;23.380;2023-03-01T02:02:10;1.48;;;1.00;;
24273;SDS011;12392;42.678;23.380;2023-03-01T02:04:37;1.45;;;1.35;;
24273;SDS011;12392;42.678;23.380;2023-03-01T02:07:04;2.92;;;1.50;;
24273;SDS011;12392;42.678;23.380;2023-03-01T02:09:34;1.50;;;1.40;;
24273;SDS011;12392;42.678;23.380;2023-03-01T02:12:01;2.05;;;1.05;;
24273;SDS011;12392;42.678;23.380;2023-03-01T02:14:27;2.08;;;1.70;;
24273;SDS011;12392;42.678;23.380;2023-03-01T02:16:53;2.05;;;1.83;;
24273;SDS011;12392;42.678;23.380;2023-03-01T02:19:22;1.88;;;1.58;;
24273;SDS011;12392;42.678;23.380;2023-03-01T02:27:18;3.05;;;1.40;;
24273;SDS011;12392;42.678;23.380;2023-03-01T02:29:47;5.85;;;2.13;;
24273;SDS011;12392;42.678;23.380;2023-03-01T02:32:12;2.13;;;1.70;;
24273;SDS011;12392;42.678;23.380;2023-03-01T02:34:40;2.28;;;1.65;;
24273;SDS011;12392;42.678;23.380;2023-03-01T02:37:10;4.10;;;1.63;;
24273;SDS011;12392;42.678;23.380;2023-03-01T02:39:42;2.08;;;1.33;;
24273;SDS011;12392;42.678;23.380;2023-03-01T02:42:13;3.13;;;1.70;;
24273;SDS011;12392;42.678;23.380;2023-03-01T02:44:42;2.90;;;1.65;;
24273;SDS011;12392;42.678;23.380;2023-03-01T02:47:07;3.10;;;2.17;;
24273;SDS011;12392;42.678;23.380;2023-03-01T02:49:34;3.30;;;1.30;;
24273;SDS011;12392;42.678;23.380;2023-03-01T02:52:07;2.92;;;1.67;;
24273;SDS011;12392;42.678;23.380;2023-03-01T02:57:33;1.27;;;0.93;;
24273;SDS011;12392;42.678;23.380;2023-03-01T03:00:04;1.70;;;1.25;;
24273;SDS011;12392;42.678;23.380;2023-03-01T03:02:32;1.27;;;0.98;;
24273;SDS011;12392;42.678;23.380;2023-03-01T03:05:34;2.17;;;0.90;;
24273;SDS011;12392;42.678;23.380;2023-03-01T03:10:25;1.60;;;0.90;;
24273;SDS011;12392;42.678;23.380;2023-03-01T03:12:57;1.42;;;1.15;;
24273;SDS011;12392;42.678;23.380;2023-03-01T03:15:28;0.80;;;0.77;;
24273;SDS011;12392;42.678;23.380;2023-03-01T03:17:55;1.73;;;1.48;;
24273;SDS011;12392;42.678;23.380;2023-03-01T03:20:22;0.40;;;0.40;;
24273;SDS011;12392;42.678;23.380;2023-03-01T03:22:50;1.50;;;1.20;;
24273;SDS011;12392;42.678;23.380;2023-03-01T03:25:17;0.70;;;0.65;;
24273;SDS011;12392;42.678;23.380;2023-03-01T03:27:45;1.65;;;1.00;;
24273;SDS011;12392;42.678;23.380;2023-03-01T03:30:13;1.95;;;1.33;;
24273;SDS011;12392;42.678;23.380;2023-03-01T03:32:42;1.27;;;1.17;;
24273;SDS011;12392;42.678;23.380;2023-03-01T03:35:18;1.83;;;1.20;;
24273;SDS011;12392;42.678;23.380;2023-03-01T03:37:51;3.25;;;1.48;;
24273;SDS011;12392;42.678;23.380;2023-03-01T03:43:01;2.25;;;1.10;;
24273;SDS011;12392;42.678;23.380;2023-03-01T03:45:28;1.55;;;1.05;;
24273;SDS011;12392;42.678;23.380;2023-03-01T03:47:54;2.50;;;1.40;;
24273;SDS011;12392;42.678;23.380;2023-03-01T03:50:19;2.15;;;1.50;;
24273;SDS011;12392;42.678;23.380;2023-03-01T03:52:45;1.63;;;1.00;;
24273;SDS011;12392;42.678;23.380;2023-03-01T03:55:11;1.60;;;1.33;;
24273;SDS011;12392;42.678;23.380;2023-03-01T03:57:38;1.83;;;1.45;;
24273;SDS011;12392;42.678;23.380;2023-03-01T04:00:07;2.45;;;1.73;;
24273;SDS011;12392;42.678;23.380;2023-03-01T04:02:41;2.08;;;1.45;;
24273;SDS011;12392;42.678;23.380;2023-03-01T04:05:08;3.13;;;1.23;;
24273;SDS011;12392;42.678;23.380;2023-03-01T04:07:35;1.50;;;1.27;;
24273;SDS011;12392;42.678;23.380;2023-03-01T04:10:02;2.50;;;1.40;;
24273;SDS011;12392;42.678;23.380;2023-03-01T04:12:29;3.15;;;1.83;;
24273;SDS011;12392;42.678;23.380;2023-03-01T04:14:55;2.20;;;1.48;;
24273;SDS011;12392;42.678;23.380;2023-03-01T04:17:20;3.38;;;1.10;;
24273;SDS011;12392;42.678;23.380;2023-03-01T04:19:46;2.65;;;1.45;;
24273;SDS011;12392;42.678;23.380;2023-03-01T04:22:14;1.38;;;1.10;;
24273;SDS011;12392;42.678;23.380;2023-03-01T04:24:43;2.67;;;1.35;;
24273;SDS011;12392;42.678;23.380;2023-03-01T04:27:09;2.45;;;1.60;;
24273;SDS011;12392;42.678;23.380;2023-03-01T04:29:35;0.98;;;0.98;;
24273;SDS011;12392;42.678;23.380;2023-03-01T04:32:01;2.35;;;1.08;;
24273;SDS011;12392;42.678;23.380;2023-03-01T04:34:28;3.47;;;0.98;;
24273;SDS011;12392;42.678;23.380;2023-03-01T04:36:54;1.85;;;1.05;;
24273;SDS011;12392;42.678;23.380;2023-03-01T04:39:20;1.60;;;1.10;;
24273;SDS011;12392;42.678;23.380;2023-03-01T04:41:46;3.30;;;1.52;;
24273;SDS011;12392;42.678;23.380;2023-03-01T04:44:12;1.63;;;0.95;;
24273;SDS011;12392;42.678;23.380;2023-03-01T04:46:38;2.72;;;1.27;;
24273;SDS011;12392;42.678;23.380;2023-03-01T04:49:03;2.53;;;1.80;;
24273;SDS011;12392;42.678;23.380;2023-03-01T04:51:30;2.75;;;1.35;;
24273;SDS011;12392;42.678;23.380;2023-03-01T04:53:57;3.72;;;1.60;;
24273;SDS011;12392;42.678;23.380;2023-03-01T04:56:23;3.47;;;2.00;;
24273;SDS011;12392;42.678;23.380;2023-03-01T04:58:49;2.97;;;2.10;;
24273;SDS011;12392;42.678;23.380;2023-03-01T05:01:16;4.55;;;2.75;;
24273;SDS011;12392;42.678;23.380;2023-03-01T05:03:47;3.30;;;2.10;;
24273;SDS011;12392;42.678;23.380;2023-03-01T05:06:16;3.08;;;2.28;;
24273;SDS011;12392;42.678;23.380;2023-03-01T05:08:43;5.60;;;3.05;;
24273;SDS011;12392;42.678;23.380;2023-03-01T05:11:09;4.80;;;2.60;;
24273;SDS011;12392;42.678;23.380;2023-03-01T05:13:36;6.90;;;3.42;;
24273;SDS011;12392;42.678;23.380;2023-03-01T05:16:03;10.80;;;3.55;;
24273;SDS011;12392;42.678;23.380;2023-03-01T05:18:30;11.00;;;4.70;;
24273;SDS011;12392;42.678;23.380;2023-03-01T05:21:07;6.20;;;3.30;;
24273;SDS011;12392;42.678;23.380;2023-03-01T05:23:35;6.53;;;3.30;;
24273;SDS011;12392;42.678;23.380;2023-03-01T05:26:01;4.72;;;2.65;;
24273;SDS011;12392;42.678;23.380;2023-03-01T05:28:28;3.50;;;2.05;;
24273;SDS011;12392;42.678;23.380;2023-03-01T05:30:55;3.75;;;2.30;;
24273;SDS011;12392;42.678;23.380;2023-03-01T05:33:21;4.05;;;1.73;;
24273;SDS011;12392;42.678;23.380;2023-03-01T05:35:47;3.63;;;2.33;;
24273;SDS011;12392;42.678;23.380;2023-03-01T05:38:14;4.05;;;2.17;;
24273;SDS011;12392;42.678;23.380;2023-03-01T05:40:41;4.07;;;2.33;;
24273;SDS011;12392;42.678;23.380;2023-03-01T05:43:08;3.40;;;2.42;;
24273;SDS011;12392;42.678;23.380;2023-03-01T05:45:35;4.15;;;1.90;;
24273;SDS011;12392;42.678;23.380;2023-03-01T05:48:02;3.97;;;2.20;;
24273;SDS011;12392;42.678;23.380;2023-03-01T05:50:31;3.28;;;2.00;;
24273;SDS011;12392;42.678;23.380;2023-03-01T05:55:25;4.03;;;2.25;;
24273;SDS011;12392;42.678;23.380;2023-03-01T05:57:51;1.92;;;1.45;;
24273;SDS011;12392;42.678;23.380;2023-03-01T06:00:17;0.52;;;0.50;;
24273;SDS011;12392;42.678;23.380;2023-03-01T06:02:44;3.95;;;2.40;;
24273;SDS011;12392;42.678;23.380;2023-03-01T06:05:11;3.20;;;1.52;;
24273;SDS011;12392;42.678;23.380;2023-03-01T06:07:37;3.97;;;2.08;;
24273;SDS011;12392;42.678;23.380;2023-03-01T06:10:04;4.82;;;3.10;;
24273;SDS011;12392;42.678;23.380;2023-03-01T06:12:34;3.90;;;2.90;;
24273;SDS011;12392;42.678;23.380;2023-03-01T06:15:01;7.50;;;4.03;;
24273;SDS011;12392;42.678;23.380;2023-03-01T06:17:29;1.35;;;1.25;;
24273;SDS011;12392;42.678;23.380;2023-03-01T06:19:55;3.03;;;2.75;;
24273;SDS011;12392;42.678;23.380;2023-03-01T06:22:21;4.18;;;2.67;;
24273;SDS011;12392;42.678;23.380;2023-03-01T06:24:47;5.75;;;1.95;;
24273;SDS011;12392;42.678;23.380;2023-03-01T06:27:12;2.35;;;1.52;;
24273;SDS011;12392;42.678;23.380;2023-03-01T06:29:38;1.98;;;1.52;;
24273;SDS011;12392;42.678;23.380;2023-03-01T06:32:04;4.40;;;2.28;;
24273;SDS011;12392;42.678;23.380;2023-03-01T06:34:30;5.47;;;2.10;;
24273;SDS011;12392;42.678;23.380;2023-03-01T06:36:56;2.15;;;0.90;;
24273;SDS011;12392;42.678;23.380;2023-03-01T06:39:21;4.38;;;1.25;;
24273;SDS011;12392;42.678;23.380;2023-03-01T06:41:47;2.95;;;1.67;;
24273;SDS011;12392;42.678;23.380;2023-03-01T06:44:13;4.25;;;1.70;;
24273;SDS011;12392;42.678;23.380;2023-03-01T06:46:39;5.10;;;2.67;;
24273;SDS011;12392;42.678;23.380;2023-03-01T06:49:05;3.20;;;1.50;;
24273;SDS011;12392;42.678;23.380;2023-03-01T06:51:34;4.55;;;1.98;;
24273;SDS011;12392;42.678;23.380;2023-03-01T06:54:01;4.30;;;2.03;;
24273;SDS011;12392;42.678;23.380;2023-03-01T06:56:28;2.03;;;1.52;;
24273;SDS011;12392;42.678;23.380;2023-03-01T06:58:54;2.90;;;1.40;;
24273;SDS011;12392;42.678;23.380;2023-03-01T07:01:19;5.80;;;1.42;;
24273;SDS011;12392;42.678;23.380;2023-03-01T07:03:45;2.67;;;1.38;;
24273;SDS011;12392;42.678;23.380;2023-03-01T07:06:11;1.30;;;0.90;;
24273;SDS011;12392;42.678;23.380;2023-03-01T07:08:36;2.25;;;1.15;;
24273;SDS011;12392;42.678;23.380;2023-03-01T07:11:02;2.35;;;1.35;;
24273;SDS011;12392;42.678;23.380;2023-03-01T07:13:29;2.75;;;1.55;;
24273;SDS011;12392;42.678;23.380;2023-03-01T07:15:54;1.65;;;1.05;;
24273;SDS011;12392;42.678;23.380;2023-03-01T07:18:20;5.53;;;1.55;;
24273;SDS011;12392;42.678;23.380;2023-03-01T07:20:46;2.80;;;1.42;;
24273;SDS011;12392;42.678;23.380;2023-03-01T07:23:12;2.15;;;1.13;;
24273;SDS011;12392;42.678;23.380;2023-03-01T07:25:37;2.25;;;1.63;;
24273;SDS011;12392;42.678;23.380;2023-03-01T07:28:03;2.22;;;1.50;;
24273;SDS011;12392;42.678;23.380;2023-03-01T07:30:29;2.33;;;1.60;;
24273;SDS011;12392;42.678;23.380;2023-03-01T07:32:56;1.83;;;1.08;;
24273;SDS011;12392;42.678;23.380;2023-03-01T07:35:22;1.55;;;1.20;;
24273;SDS011;12392;42.678;23.380;2023-03-01T07:37:48;0.60;;;0.60;;
24273;SDS011;12392;42.678;23.380;2023-03-01T07:40:14;2.03;;;1.13;;
24273;SDS011;12392;42.678;23.380;2023-03-01T07:42:40;5.00;;;1.50;;
24273;SDS011;12392;42.678;23.380;2023-03-01T07:45:06;0.90;;;0.68;;
24273;SDS011;12392;42.678;23.380;2023-03-01T07:47:32;4.63;;;1.08;;
24273;SDS011;12392;42.678;23.380;2023-03-01T07:49:58;1.65;;;1.25;;
24273;SDS011;12392;42.678;23.380;2023-03-01T07:52:23;1.88;;;1.20;;
24273;SDS011;12392;42.678;23.380;2023-03-01T07:54:49;0.98;;;0.90;;
24273;SDS011;12392;42.678;23.380;2023-03-01T07:57:15;0.98;;;0.85;;
24273;SDS011;12392;42.678;23.380;2023-03-01T07:59:40;1.08;;;0.75;;
24273;SDS011;12392;42.678;23.380;2023-03-01T08:02:06;1.42;;;1.25;;
24273;SDS011;12392;42.678;23.380;2023-03-01T08:04:33;5.43;;;1.70;;
24273;SDS011;12392;42.678;23.380;2023-03-01T08:06:58;2.13;;;1.40;;
24273;SDS011;12392;42.678;23.380;2023-03-01T08:09:24;2.03;;;1.15;;
24273;SDS011;12392;42.678;23.380;2023-03-01T08:11:50;4.68;;;1.13;;
24273;SDS011;12392;42.678;23.380;2023-03-01T08:14:16;4.70;;;1.75;;
24273;SDS011;12392;42.678;23.380;2023-03-01T08:16:42;2.67;;;0.93;;
24273;SDS011;12392;42.678;23.380;2023-03-01T08:19:08;2.03;;;1.02;;
24273;SDS011;12392;42.678;23.380;2023-03-01T08:21:36;1.95;;;1.00;;
24273;SDS011;12392;42.678;23.380;2023-03-01T08:24:02;1.30;;;1.20;;
24273;SDS011;12392;42.678;23.380;2023-03-01T08:26:29;1.35;;;1.00;;
24273;SDS011;12392;42.678;23.380;2023-03-01T08:28:56;0.85;;;0.68;;
24273;SDS011;12392;42.678;23.380;2023-03-01T08:31:26;0.30;;;0.28;;
24273;SDS011;12392;42.678;23.380;2023-03-01T08:33:54;1.73;;;1.45;;
24273;SDS011;12392;42.678;23.380;2023-03-01T08:36:22;4.28;;;0.80;;
24273;SDS011;12392;42.678;23.380;2023-03-01T08:38:52;1.05;;;0.80;;
24273;SDS011;12392;42.678;23.380;2023-03-01T08:41:18;3.63;;;1.10;;
24273;SDS011;12392;42.678;23.380;2023-03-01T08:43:44;1.58;;;0.73;;
24273;SDS011;12392;42.678;23.380;2023-03-01T08:46:10;1.70;;;1.13;;
24273;SDS011;12392;42.678;23.380;2023-03-01T08:48:36;4.00;;;0.80;;
24273;SDS011;12392;42.678;23.380;2023-03-01T08:51:35;1.00;;;0.98;;
24273;SDS011;12392;42.678;23.380;2023-03-01T08:53:54;1.70;;;1.15;;
24273;SDS011;12392;42.678;23.380;2023-03-01T08:56:19;1.05;;;0.82;;
24273;SDS011;12392;42.678;23.380;2023-03-01T08:58:46;1.15;;;1.00;;
24273;SDS011;12392;42.678;23.380;2023-03-01T09:01:13;1.10;;;0.82;;
24273;SDS011;12392;42.678;23.380;2023-03-01T09:03:40;2.38;;;1.10;;
24273;SDS011;12392;42.678;23.380;2023-03-01T09:06:06;4.45;;;0.85;;
24273;SDS011;12392;42.678;23.380;2023-03-01T09:08:36;0.65;;;0.52;;
24273;SDS011;12392;42.678;23.380;2023-03-01T09:11:03;1.48;;;1.00;;
24273;SDS011;12392;42.678;23.380;2023-03-01T09:13:30;0.88;;;0.57;;
24273;SDS011;12392;42.678;23.380;2023-03-01T09:15:59;4.18;;;0.75;;
24273;SDS011;12392;42.678;23.380;2023-03-01T09:18:26;0.77;;;0.75;;
24273;SDS011;12392;42.678;23.380;2023-03-01T09:20:52;3.22;;;0.75;;
24273;SDS011;12392;42.678;23.380;2023-03-01T09:23:20;2.50;;;0.82;;
24273;SDS011;12392;42.678;23.380;2023-03-01T09:25:46;1.58;;;1.13;;
24273;SDS011;12392;42.678;23.380;2023-03-01T09:28:12;1.60;;;0.93;;
24273;SDS011;12392;42.678;23.380;2023-03-01T09:30:37;0.57;;;0.57;;
24273;SDS011;12392;42.678;23.380;2023-03-01T09:33:03;1.70;;;1.00;;
24273;SDS011;12392;42.678;23.380;2023-03-01T09:35:29;3.10;;;0.90;;
24273;SDS011;12392;42.678;23.380;2023-03-01T09:37:55;1.02;;;0.38;;
24273;SDS011;12392;42.678;23.380;2023-03-01T09:40:21;0.50;;;0.50;;
24273;SDS011;12392;42.678;23.380;2023-03-01T09:43:01;2.55;;;0.70;;
24273;SDS011;12392;42.678;23.380;2023-03-01T09:45:34;0.77;;;0.50;;
24273;SDS011;12392;42.678;23.380;2023-03-01T09:48:02;0.60;;;0.30;;
24273;SDS011;12392;42.678;23.380;2023-03-01T09:50:34;2.08;;;0.50;;
24273;SDS011;12392;42.678;23.380;2023-03-01T09:53:09;0.50;;;0.50;;
24273;SDS011;12392;42.678;23.380;2023-03-01T09:55:39;0.50;;;0.47;;
24273;SDS011;12392;42.678;23.380;2023-03-01T09:58:31;0.88;;;0.65;;
24273;SDS011;12392;42.678;23.380;2023-03-01T10:01:25;0.47;;;0.32;;
24273;SDS011;12392;42.678;23.380;2023-03-01T10:09:43;1.42;;;0.63;;
24273;SDS011;12392;42.678;23.380;2023-03-01T10:12:15;2.25;;;0.70;;
24273;SDS011;12392;42.678;23.380;2023-03-01T10:17:33;1.92;;;1.10;;
24273;SDS011;12392;42.678;23.380;2023-03-01T10:20:17;0.87;;;0.40;;
24273;SDS011;12392;42.678;23.380;2023-03-01T10:22:50;0.68;;;0.60;;
24273;SDS011;12392;42.678;23.380;2023-03-01T10:25:23;0.77;;;0.45;;
24273;SDS011;12392;42.678;23.380;2023-03-01T10:30:42;0.85;;;0.70;;
24273;SDS011;12392;42.678;23.380;2023-03-01T10:35:54;0.82;;;0.52;;
24273;SDS011;12392;42.678;23.380;2023-03-01T10:38:20;0.63;;;0.63;;
24273;SDS011;12392;42.678;23.380;2023-03-01T10:43:28;0.77;;;0.57;;
24273;SDS011;12392;42.678;23.380;2023-03-01T10:46:20;0.70;;;0.52;;
24273;SDS011;12392;42.678;23.380;2023-03-01T10:51:47;1.02;;;0.70;;
24273;SDS011;12392;42.678;23.380;2023-03-01T10:54:19;0.35;;;0.35;;
24273;SDS011;12392;42.678;23.380;2023-03-01T10:56:54;0.30;;;0.25;;
24273;SDS011;12392;42.678;23.380;2023-03-01T10:59:28;0.77;;;0.50;;
24273;SDS011;12392;42.678;23.380;2023-03-01T11:04:55;0.50;;;0.30;;
24273;SDS011;12392;42.678;23.380;2023-03-01T11:07:25;1.92;;;0.50;;
24273;SDS011;12392;42.678;23.380;2023-03-01T11:09:52;0.10;;;0.10;;
24273;SDS011;12392;42.678;23.380;2023-03-01T11:12:17;0.28;;;0.28;;
24273;SDS011;12392;42.678;23.380;2023-03-01T11:14:50;0.60;;;0.60;;
24273;SDS011;12392;42.678;23.380;2023-03-01T11:17:21;0.40;;;0.40;;
24273;SDS011;12392;42.678;23.380;2023-03-01T11:20:23;0.20;;;0.20;;
24273;SDS011;12392;42.678;23.380;2023-03-01T11:22:54;0.88;;;0.50;;
24273;SDS011;12392;42.678;23.380;2023-03-01T11:25:55;0.63;;;0.30;;
24273;SDS011;12392;42.678;23.380;2023-03-01T11:28:24;0.50;;;0.50;;
24273;SDS011;12392;42.678;23.380;2023-03-01T11:31:12;0.45;;;0.45;;
24273;SDS011;12392;42.678;23.380;2023-03-01T11:33:52;0.45;;;0.45;;
24273;SDS011;12392;42.678;23.380;2023-03-01T11:39:02;5.55;;;0.60;;
24273;SDS011;12392;42.678;23.380;2023-03-01T11:41:42;6.30;;;0.95;;
24273;SDS011;12392;42.678;23.380;2023-03-01T11:44:14;0.85;;;0.70;;
24273;SDS011;12392;42.678;23.380;2023-03-01T11:49:56;1.27;;;0.93;;
24273;SDS011;12392;42.678;23.380;2023-03-01T11:55:29;1.83;;;1.10;;
24273;SDS011;12392;42.678;23.380;2023-03-01T12:07:17;1.98;;;1.25;;
24273;SDS011;12392;42.678;23.380;2023-03-01T12:23:57;0.90;;;0.90;;
24273;SDS011;12392;42.678;23.380;2023-03-01T12:34:38;1.20;;;1.02;;
24273;SDS011;12392;42.678;23.380;2023-03-01T12:40:23;3.22;;;1.50;;
24273;SDS011;12392;42.678;23.380;2023-03-01T12:46:23;3.63;;;1.45;;
24273;SDS011;12392;42.678;23.380;2023-03-01T12:51:36;2.22;;;0.98;;
24273;SDS011;12392;42.678;23.380;2023-03-01T12:56:51;1.33;;;1.00;;
24273;SDS011;12392;42.678;23.380;2023-03-01T13:02:22;1.45;;;0.73;;
24273;SDS011;12392;42.678;23.380;2023-03-01T13:10:34;1.60;;;1.25;;
24273;SDS011;12392;42.678;23.380;2023-03-01T13:13:40;4.30;;;0.95;;
24273;SDS011;12392;42.678;23.380;2023-03-01T13:16:19;1.17;;;0.68;;
24273;SDS011;12392;42.678;23.380;2023-03-01T13:18:46;2.22;;;1.05;;
24273;SDS011;12392;42.678;23.380;2023-03-01T13:21:12;1.65;;;1.10;;
24273;SDS011;12392;42.678;23.380;2023-03-01T13:23:38;2.70;;;1.00;;
24273;SDS011;12392;42.678;23.380;2023-03-01T13:26:08;1.80;;;1.10;;
24273;SDS011;12392;42.678;23.380;2023-03-01T13:33:54;1.48;;;1.08;;
24273;SDS011;12392;42.678;23.380;2023-03-01T13:38:56;4.57;;;2.20;;
24273;SDS011;12392;42.678;23.380;2023-03-01T13:44:24;3.40;;;1.60;;
24273;SDS011;12392;42.678;23.380;2023-03-01T13:47:20;2.35;;;1.10;;
24273;SDS011;12392;42.678;23.380;2023-03-01T13:49:48;2.22;;;1.08;;
24273;SDS011;12392;42.678;23.380;2023-03-01T13:52:36;1.38;;;0.80;;
24273;SDS011;12392;42.678;23.380;2023-03-01T13:57:45;2.10;;;1.27;;
24273;SDS011;12392;42.678;23.380;2023-03-01T14:03:04;1.63;;;0.68;;
24273;SDS011;12392;42.678;23.380;2023-03-01T14:05:33;2.83;;;1.17;;
24273;SDS011;12392;42.678;23.380;2023-03-01T14:08:00;3.80;;;1.20;;
24273;SDS011;12392;42.678;23.380;2023-03-01T14:10:44;1.48;;;1.00;;
24273;SDS011;12392;42.678;23.380;2023-03-01T14:13:21;1.40;;;0.90;;
24273;SDS011;12392;42.678;23.380;2023-03-01T14:16:07;4.38;;;1.17;;
24273;SDS011;12392;42.678;23.380;2023-03-01T14:21:33;1.10;;;0.65;;
24273;SDS011;12392;42.678;23.380;2023-03-01T14:24:01;1.63;;;0.93;;
24273;SDS011;12392;42.678;23.380;2023-03-01T14:26:27;1.55;;;0.73;;
24273;SDS011;12392;42.678;23.380;2023-03-01T14:28:53;2.75;;;1.02;;
24273;SDS011;12392;42.678;23.380;2023-03-01T14:33:56;1.65;;;1.17;;
24273;SDS011;12392;42.678;23.380;2023-03-01T14:36:29;2.35;;;1.55;;
24273;SDS011;12392;42.678;23.380;2023-03-01T14:38:56;1.48;;;1.00;;
24273;SDS011;12392;42.678;23.380;2023-03-01T14:41:29;2.42;;;1.42;;
24273;SDS011;12392;42.678;23.380;2023-03-01T14:43:58;1.60;;;0.90;;
24273;SDS011;12392;42.678;23.380;2023-03-01T14:46:36;1.48;;;1.08;;
24273;SDS011;12392;42.678;23.380;2023-03-01T14:49:04;3.17;;;1.42;;
24273;SDS011;12392;42.678;23.380;2023-03-01T14:51:52;2.67;;;0.95;;
24273;SDS011;12392;42.678;23.380;2023-03-01T14:57:19;2.95;;;1.48;;
24273;SDS011;12392;42.678;23.380;2023-03-01T14:59:50;2.92;;;1.20;;
24273;SDS011;12392;42.678;23.380;2023-03-01T15:02:21;3.40;;;0.95;;
24273;SDS011;12392;42.678;23.380;2023-03-01T15:04:49;0.68;;;0.60;;
24273;SDS011;12392;42.678;23.380;2023-03-01T15:07:17;2.85;;;0.98;;
24273;SDS011;12392;42.678;23.380;2023-03-01T15:09:43;1.48;;;0.98;;
24273;SDS011;12392;42.678;23.380;2023-03-01T15:14:55;2.60;;;1.33;;
24273;SDS011;12392;42.678;23.380;2023-03-01T15:17:32;2.08;;;1.27;;
24273;SDS011;12392;42.678;23.380;2023-03-01T15:20:00;2.90;;;1.23;;
24273;SDS011;12392;42.678;23.380;2023-03-01T15:22:30;1.55;;;0.77;;
24273;SDS011;12392;42.678;23.380;2023-03-01T15:24:56;2.00;;;0.85;;
24273;SDS011;12392;42.678;23.380;2023-03-01T15:27:22;1.67;;;0.70;;
24273;SDS011;12392;42.678;23.380;2023-03-01T15:29:55;2.35;;;1.70;;
24273;SDS011;12392;42.678;23.380;2023-03-01T15:34:50;1.40;;;0.63;;
24273;SDS011;12392;42.678;23.380;2023-03-01T15:40:17;1.98;;;0.88;;
24273;SDS011;12392;42.678;23.380;2023-03-01T15:43:03;1.73;;;1.10;;
24273;SDS011;12392;42.678;23.380;2023-03-01T15:45:30;2.97;;;1.10;;
24273;SDS011;12392;42.678;23.380;2023-03-01T15:48:05;2.15;;;1.58;;
24273;SDS011;12392;42.678;23.380;2023-03-01T15:50:58;2.35;;;1.00;;
24273;SDS011;12392;42.678;23.380;2023-03-01T15:53:24;2.45;;;1.30;;
24273;SDS011;12392;42.678;23.380;2023-03-01T15:55:52;2.67;;;1.48;;
24273;SDS011;12392;42.678;23.380;2023-03-01T15:58:18;5.50;;;1.95;;
24273;SDS011;12392;42.678;23.380;2023-03-01T16:00:47;3.35;;;1.83;;
24273;SDS011;12392;42.678;23.380;2023-03-01T16:03:13;5.63;;;1.10;;
24273;SDS011;12392;42.678;23.380;2023-03-01T16:05:41;2.78;;;1.05;;
24273;SDS011;12392;42.678;23.380;2023-03-01T16:08:08;2.05;;;1.17;;
24273;SDS011;12392;42.678;23.380;2023-03-01T16:10:36;3.45;;;1.30;;
24273;SDS011;12392;42.678;23.380;2023-03-01T16:13:02;2.95;;;1.70;;
24273;SDS011;12392;42.678;23.380;2023-03-01T16:15:29;2.47;;;1.00;;
24273;SDS011;12392;42.678;23.380;2023-03-01T16:17:56;2.05;;;1.30;;
24273;SDS011;12392;42.678;23.380;2023-03-01T16:20:23;4.32;;;1.27;;
24273;SDS011;12392;42.678;23.380;2023-03-01T16:22:49;1.65;;;0.98;;
24273;SDS011;12392;42.678;23.380;2023-03-01T16:25:16;4.70;;;1.55;;
24273;SDS011;12392;42.678;23.380;2023-03-01T16:27:44;6.20;;;0.75;;
24273;SDS011;12392;42.678;23.380;2023-03-01T16:30:11;4.13;;;1.48;;
24273;SDS011;12392;42.678;23.380;2023-03-01T16:32:38;2.78;;;1.45;;
24273;SDS011;12392;42.678;23.380;2023-03-01T16:35:05;5.80;;;1.50;;
24273;SDS011;12392;42.678;23.380;2023-03-01T16:37:32;4.28;;;1.83;;
24273;SDS011;12392;42.678;23.380;2023-03-01T16:39:58;6.28;;;2.50;;
24273;SDS011;12392;42.678;23.380;2023-03-01T16:42:24;5.55;;;2.35;;
24273;SDS011;12392;42.678;23.380;2023-03-01T16:44:56;3.38;;;1.75;;
24273;SDS011;12392;42.678;23.380;2023-03-01T16:47:22;4.10;;;1.63;;
24273;SDS011;12392;42.678;23.380;2023-03-01T16:49:51;3.42;;;1.73;;
24273;SDS011;12392;42.678;23.380;2023-03-01T16:52:17;11.90;;;1.95;;
24273;SDS011;12392;42.678;23.380;2023-03-01T16:54:43;4.05;;;1.95;;
24273;SDS011;12392;42.678;23.380;2023-03-01T16:57:11;5.57;;;2.03;;
24273;SDS011;12392;42.678;23.380;2023-03-01T16:59:37;5.93;;;2.30;;
24273;SDS011;12392;42.678;23.380;2023-03-01T17:02:03;5.97;;;2.90;;